sensor_id;sensor_type;location;lat;lon;timestamp;P1;durP1;ratioP1;P2;durP2;ratioP2
8001;SDS011;4046;48.774;8.732;2022-11-30T00:01:08;2.60;;;2.50;;
8001;SDS011;4046;48.774;8.732;2022-11-30T00:03:36;2.57;;;2.40;;
8001;SDS011;4046;48.774;8.732;2022-11-30T00:06:03;2.87;;;2.77;;
8001;SDS011;4046;48.774;8.732;2022-11-30T00:08:30;2.53;;;2.43;;
8001;SDS011;4046;48.774;8.732;2022-11-30T00:10:57;2.83;;;2.63;;
8001;SDS011;4046;48.774;8.732;2022-11-30T00:13:23;2.63;;;2.53;;
8001;SDS011;4046;48.774;8.732;2022-11-30T00:15:49;3.00;;;2.90;;
8001;SDS011;4046;48.774;8.732;2022-11-30T00:18:15;2.80;;;2.60;;
8001;SDS011;4046;48.774;8.732;2022-11-30T00:20:42;2.73;;;2.63;;
8001;SDS011;4046;48.774;8.732;2022-11-30T00:23:09;2.40;;;2.30;;
8001;SDS011;4046;48.774;8.732;2022-11-30T00:25:35;2.37;;;2.27;;
8001;SDS011;4046;48.774;8.732;2022-11-30T00:28:02;2.70;;;2.50;;
8001;SDS011;4046;48.774;8.732;2022-11-30T00:30:28;2.70;;;2.60;;
8001;SDS011;4046;48.774;8.732;2022-11-30T00:32:56;2.40;;;2.30;;
8001;SDS011;4046;48.774;8.732;2022-11-30T00:35:22;2.43;;;2.33;;
8001;SDS011;4046;48.774;8.732;2022-11-30T00:37:49;2.87;;;2.67;;
8001;SDS011;4046;48.774;8.732;2022-11-30T00:40:15;2.60;;;2.50;;
8001;SDS011;4046;48.774;8.732;2022-11-30T00:42:41;2.60;;;2.50;;
8001;SDS011;4046;48.774;8.732;2022-11-30T00:45:08;2.70;;;2.57;;
8001;SDS011;4046;48.774;8.732;2022-11-30T00:47:34;2.20;;;2.10;;
8001;SDS011;4046;48.774;8.732;2022-11-30T00:50:01;2.40;;;2.30;;
8001;SDS011;4046;48.774;8.732;2022-11-30T00:52:28;2.43;;;2.33;;
8001;SDS011;4046;48.774;8.732;2022-11-30T00:54:55;2.90;;;2.80;;
8001;SDS011;4046;48.774;8.732;2022-11-30T00:57:21;2.60;;;2.50;;
8001;SDS011;4046;48.774;8.732;2022-11-30T00:59:47;2.57;;;2.47;;
8001;SDS011;4046;48.774;8.732;2022-11-30T01:02:14;3.07;;;2.87;;
8001;SDS011;4046;48.774;8.732;2022-11-30T01:04:40;2.50;;;2.40;;
8001;SDS011;4046;48.774;8.732;2022-11-30T01:07:06;2.97;;;2.77;;
8001;SDS011;4046;48.774;8.732;2022-11-30T01:09:32;2.53;;;2.43;;
8001;SDS011;4046;48.774;8.732;2022-11-30T01:11:58;2.60;;;2.50;;
8001;SDS011;4046;48.774;8.732;2022-11-30T01:14:25;2.50;;;2.40;;
8001;SDS011;4046;48.774;8.732;2022-11-30T01:16:51;2.70;;;2.50;;
8001;SDS011;4046;48.774;8.732;2022-11-30T01:19:17;2.37;;;2.27;;
8001;SDS011;4046;48.774;8.732;2022-11-30T01:21:43;2.90;;;2.77;;
8001;SDS011;4046;48.774;8.732;2022-11-30T01:24:09;2.30;;;2.20;;
8001;SDS011;4046;48.774;8.732;2022-11-30T01:26:36;2.80;;;2.70;;
8001;SDS011;4046;48.774;8.732;2022-11-30T01:29:02;2.63;;;2.53;;
8001;SDS011;4046;48.774;8.732;2022-11-30T01:31:28;2.40;;;2.30;;
8001;SDS011;4046;48.774;8.732;2022-11-30T01:33:54;2.90;;;2.70;;
8001;SDS011;4046;48.774;8.732;2022-11-30T01:36:22;2.37;;;2.27;;
8001;SDS011;4046;48.774;8.732;2022-11-30T01:38:51;2.50;;;2.40;;
8001;SDS011;4046;48.774;8.732;2022-11-30T01:41:29;2.27;;;2.17;;
8001;SDS011;4046;48.774;8.732;2022-11-30T01:43:57;2.70;;;2.60;;
8001;SDS011;4046;48.774;8.732;2022-11-30T01:46:43;2.57;;;2.47;;
8001;SDS011;4046;48.774;8.732;2022-11-30T01:49:15;2.77;;;2.57;;
8001;SDS011;4046;48.774;8.732;2022-11-30T01:51:52;2.60;;;2.50;;
8001;SDS011;4046;48.774;8.732;2022-11-30T01:54:35;2.93;;;2.83;;
8001;SDS011;4046;48.774;8.732;2022-11-30T01:57:10;2.57;;;2.47;;
8001;SDS011;4046;48.774;8.732;2022-11-30T01:59:40;2.90;;;2.80;;
8001;SDS011;4046;48.774;8.732;2022-11-30T02:02:07;2.47;;;2.37;;
8001;SDS011;4046;48.774;8.732;2022-11-30T02:04:33;3.00;;;2.80;;
8001;SDS011;4046;48.774;8.732;2022-11-30T02:07:03;2.70;;;2.60;;
8001;SDS011;4046;48.774;8.732;2022-11-30T02:09:34;2.40;;;2.30;;
8001;SDS011;4046;48.774;8.732;2022-11-30T02:12:07;2.60;;;2.50;;
8001;SDS011;4046;48.774;8.732;2022-11-30T02:14:38;2.93;;;2.73;;
8001;SDS011;4046;48.774;8.732;2022-11-30T02:17:23;2.80;;;2.70;;
8001;SDS011;4046;48.774;8.732;2022-11-30T02:20:18;2.63;;;2.53;;
8001;SDS011;4046;48.774;8.732;2022-11-30T02:23:01;2.83;;;2.73;;
8001;SDS011;4046;48.774;8.732;2022-11-30T02:31:33;3.17;;;2.97;;
8001;SDS011;4046;48.774;8.732;2022-11-30T02:34:09;2.30;;;2.20;;
8001;SDS011;4046;48.774;8.732;2022-11-30T02:36:38;2.53;;;2.43;;
8001;SDS011;4046;48.774;8.732;2022-11-30T02:39:05;2.73;;;2.53;;
8001;SDS011;4046;48.774;8.732;2022-11-30T02:41:38;2.60;;;2.50;;
8001;SDS011;4046;48.774;8.732;2022-11-30T02:44:05;2.80;;;2.70;;
8001;SDS011;4046;48.774;8.732;2022-11-30T02:46:53;2.97;;;2.77;;
8001;SDS011;4046;48.774;8.732;2022-11-30T02:52:12;2.50;;;2.40;;
8001;SDS011;4046;48.774;8.732;2022-11-30T02:54:39;2.80;;;2.63;;
8001;SDS011;4046;48.774;8.732;2022-11-30T02:57:06;2.93;;;2.83;;
8001;SDS011;4046;48.774;8.732;2022-11-30T02:59:32;2.87;;;2.73;;
8001;SDS011;4046;48.774;8.732;2022-11-30T03:01:59;3.17;;;2.97;;
8001;SDS011;4046;48.774;8.732;2022-11-30T03:04:25;2.70;;;2.60;;
8001;SDS011;4046;48.774;8.732;2022-11-30T03:06:51;2.67;;;2.57;;
8001;SDS011;4046;48.774;8.732;2022-11-30T03:09:18;2.83;;;2.73;;
8001;SDS011;4046;48.774;8.732;2022-11-30T03:11:44;2.80;;;2.70;;
8001;SDS011;4046;48.774;8.732;2022-11-30T03:14:10;2.90;;;2.80;;
8001;SDS011;4046;48.774;8.732;2022-11-30T03:16:36;2.83;;;2.73;;
8001;SDS011;4046;48.774;8.732;2022-11-30T03:19:03;2.73;;;2.63;;
8001;SDS011;4046;48.774;8.732;2022-11-30T03:21:30;2.97;;;2.77;;
8001;SDS011;4046;48.774;8.732;2022-11-30T03:23:56;2.60;;;2.50;;
8001;SDS011;4046;48.774;8.732;2022-11-30T03:26:22;2.60;;;2.50;;
8001;SDS011;4046;48.774;8.732;2022-11-30T03:28:48;2.90;;;2.80;;
8001;SDS011;4046;48.774;8.732;2022-11-30T03:31:14;2.70;;;2.60;;
8001;SDS011;4046;48.774;8.732;2022-11-30T03:33:40;2.63;;;2.53;;
8001;SDS011;4046;48.774;8.732;2022-11-30T03:36:08;2.40;;;2.30;;
8001;SDS011;4046;48.774;8.732;2022-11-30T03:38:36;2.43;;;2.33;;
8001;SDS011;4046;48.774;8.732;2022-11-30T03:41:03;2.90;;;2.70;;
8001;SDS011;4046;48.774;8.732;2022-11-30T03:43:38;2.53;;;2.43;;
8001;SDS011;4046;48.774;8.732;2022-11-30T03:46:04;2.90;;;2.80;;
8001;SDS011;4046;48.774;8.732;2022-11-30T03:48:31;2.80;;;2.63;;
8001;SDS011;4046;48.774;8.732;2022-11-30T03:50:57;2.87;;;2.77;;
8001;SDS011;4046;48.774;8.732;2022-11-30T03:53:24;2.80;;;2.70;;
8001;SDS011;4046;48.774;8.732;2022-11-30T03:55:51;2.60;;;2.40;;
8001;SDS011;4046;48.774;8.732;2022-11-30T03:58:18;2.40;;;2.30;;
8001;SDS011;4046;48.774;8.732;2022-11-30T04:00:44;2.73;;;2.53;;
8001;SDS011;4046;48.774;8.732;2022-11-30T04:03:11;2.50;;;2.40;;
8001;SDS011;4046;48.774;8.732;2022-11-30T04:05:37;2.70;;;2.60;;
8001;SDS011;4046;48.774;8.732;2022-11-30T04:08:03;2.80;;;2.70;;
8001;SDS011;4046;48.774;8.732;2022-11-30T04:10:29;2.50;;;2.30;;
8001;SDS011;4046;48.774;8.732;2022-11-30T04:12:55;2.67;;;2.57;;
8001;SDS011;4046;48.774;8.732;2022-11-30T04:15:21;2.37;;;2.27;;
8001;SDS011;4046;48.774;8.732;2022-11-30T04:17:48;2.13;;;2.03;;
8001;SDS011;4046;48.774;8.732;2022-11-30T04:20:14;2.57;;;2.47;;
8001;SDS011;4046;48.774;8.732;2022-11-30T04:22:40;2.50;;;2.30;;
8001;SDS011;4046;48.774;8.732;2022-11-30T04:25:06;2.33;;;2.23;;
8001;SDS011;4046;48.774;8.732;2022-11-30T04:27:33;2.60;;;2.40;;
8001;SDS011;4046;48.774;8.732;2022-11-30T04:29:59;2.30;;;2.20;;
8001;SDS011;4046;48.774;8.732;2022-11-30T04:32:25;2.40;;;2.30;;
8001;SDS011;4046;48.774;8.732;2022-11-30T04:34:51;2.30;;;2.20;;
8001;SDS011;4046;48.774;8.732;2022-11-30T04:37:18;2.23;;;2.13;;
8001;SDS011;4046;48.774;8.732;2022-11-30T04:39:44;2.47;;;2.20;;
8001;SDS011;4046;48.774;8.732;2022-11-30T04:42:10;2.57;;;2.47;;
8001;SDS011;4046;48.774;8.732;2022-11-30T04:44:36;2.40;;;2.30;;
8001;SDS011;4046;48.774;8.732;2022-11-30T04:47:02;2.10;;;2.00;;
8001;SDS011;4046;48.774;8.732;2022-11-30T04:49:29;2.10;;;2.00;;
8001;SDS011;4046;48.774;8.732;2022-11-30T04:51:55;2.20;;;2.10;;
8001;SDS011;4046;48.774;8.732;2022-11-30T04:54:21;1.93;;;1.83;;
8001;SDS011;4046;48.774;8.732;2022-11-30T04:56:47;2.40;;;2.30;;
8001;SDS011;4046;48.774;8.732;2022-11-30T04:59:13;2.33;;;2.13;;
8001;SDS011;4046;48.774;8.732;2022-11-30T05:01:39;2.47;;;2.30;;
8001;SDS011;4046;48.774;8.732;2022-11-30T05:04:06;2.20;;;2.10;;
8001;SDS011;4046;48.774;8.732;2022-11-30T05:06:32;1.97;;;1.87;;
8001;SDS011;4046;48.774;8.732;2022-11-30T05:08:58;2.20;;;2.10;;
8001;SDS011;4046;48.774;8.732;2022-11-30T05:11:24;1.90;;;1.80;;
8001;SDS011;4046;48.774;8.732;2022-11-30T05:13:51;1.90;;;1.80;;
8001;SDS011;4046;48.774;8.732;2022-11-30T05:16:17;2.20;;;2.10;;
8001;SDS011;4046;48.774;8.732;2022-11-30T05:18:43;2.10;;;2.00;;
8001;SDS011;4046;48.774;8.732;2022-11-30T05:21:09;2.10;;;2.00;;
8001;SDS011;4046;48.774;8.732;2022-11-30T05:23:36;1.90;;;1.80;;
8001;SDS011;4046;48.774;8.732;2022-11-30T05:26:02;2.03;;;1.93;;
8001;SDS011;4046;48.774;8.732;2022-11-30T05:28:29;1.80;;;1.70;;
8001;SDS011;4046;48.774;8.732;2022-11-30T05:31:00;2.00;;;1.90;;
8001;SDS011;4046;48.774;8.732;2022-11-30T05:33:28;1.87;;;1.77;;
8001;SDS011;4046;48.774;8.732;2022-11-30T05:35:54;1.80;;;1.70;;
8001;SDS011;4046;48.774;8.732;2022-11-30T05:38:20;1.70;;;1.60;;
8001;SDS011;4046;48.774;8.732;2022-11-30T05:40:46;1.80;;;1.70;;
8001;SDS011;4046;48.774;8.732;2022-11-30T05:43:12;1.87;;;1.77;;
8001;SDS011;4046;48.774;8.732;2022-11-30T05:45:39;2.10;;;2.00;;
8001;SDS011;4046;48.774;8.732;2022-11-30T05:48:05;1.70;;;1.60;;
8001;SDS011;4046;48.774;8.732;2022-11-30T05:50:31;2.00;;;1.90;;
8001;SDS011;4046;48.774;8.732;2022-11-30T05:52:57;1.80;;;1.70;;
8001;SDS011;4046;48.774;8.732;2022-11-30T05:55:25;2.00;;;1.90;;
8001;SDS011;4046;48.774;8.732;2022-11-30T05:57:53;1.73;;;1.63;;
8001;SDS011;4046;48.774;8.732;2022-11-30T06:00:19;1.80;;;1.70;;
8001;SDS011;4046;48.774;8.732;2022-11-30T06:02:46;1.90;;;1.80;;
8001;SDS011;4046;48.774;8.732;2022-11-30T06:05:12;1.80;;;1.70;;
8001;SDS011;4046;48.774;8.732;2022-11-30T06:07:39;2.23;;;2.13;;
8001;SDS011;4046;48.774;8.732;2022-11-30T06:10:05;1.70;;;1.60;;
8001;SDS011;4046;48.774;8.732;2022-11-30T06:12:32;2.00;;;1.90;;
8001;SDS011;4046;48.774;8.732;2022-11-30T06:14:58;1.60;;;1.50;;
8001;SDS011;4046;48.774;8.732;2022-11-30T06:17:24;1.90;;;1.80;;
8001;SDS011;4046;48.774;8.732;2022-11-30T06:19:50;1.93;;;1.83;;
8001;SDS011;4046;48.774;8.732;2022-11-30T06:22:17;1.70;;;1.60;;
8001;SDS011;4046;48.774;8.732;2022-11-30T06:24:43;2.30;;;2.20;;
8001;SDS011;4046;48.774;8.732;2022-11-30T06:27:09;1.53;;;1.43;;
8001;SDS011;4046;48.774;8.732;2022-11-30T06:29:35;1.57;;;1.47;;
8001;SDS011;4046;48.774;8.732;2022-11-30T06:32:01;1.60;;;1.50;;
8001;SDS011;4046;48.774;8.732;2022-11-30T06:34:29;1.70;;;1.60;;
8001;SDS011;4046;48.774;8.732;2022-11-30T06:36:56;1.70;;;1.60;;
8001;SDS011;4046;48.774;8.732;2022-11-30T06:39:22;1.70;;;1.60;;
8001;SDS011;4046;48.774;8.732;2022-11-30T06:41:49;1.70;;;1.60;;
8001;SDS011;4046;48.774;8.732;2022-11-30T06:44:15;1.73;;;1.63;;
8001;SDS011;4046;48.774;8.732;2022-11-30T06:46:41;1.50;;;1.40;;
8001;SDS011;4046;48.774;8.732;2022-11-30T06:49:07;1.93;;;1.83;;
8001;SDS011;4046;48.774;8.732;2022-11-30T06:51:33;1.80;;;1.70;;
8001;SDS011;4046;48.774;8.732;2022-11-30T06:54:01;2.00;;;1.90;;
8001;SDS011;4046;48.774;8.732;2022-11-30T06:56:28;1.60;;;1.50;;
8001;SDS011;4046;48.774;8.732;2022-11-30T06:58:54;1.67;;;1.57;;
8001;SDS011;4046;48.774;8.732;2022-11-30T07:01:20;1.50;;;1.40;;
8001;SDS011;4046;48.774;8.732;2022-11-30T07:03:46;1.70;;;1.60;;
8001;SDS011;4046;48.774;8.732;2022-11-30T07:06:13;1.87;;;1.77;;
8001;SDS011;4046;48.774;8.732;2022-11-30T07:08:40;2.00;;;1.90;;
8001;SDS011;4046;48.774;8.732;2022-11-30T07:11:07;1.77;;;1.67;;
8001;SDS011;4046;48.774;8.732;2022-11-30T07:13:34;2.10;;;2.00;;
8001;SDS011;4046;48.774;8.732;2022-11-30T07:16:04;2.00;;;1.90;;
8001;SDS011;4046;48.774;8.732;2022-11-30T07:18:32;1.80;;;1.50;;
8001;SDS011;4046;48.774;8.732;2022-11-30T07:20:59;1.70;;;1.60;;
8001;SDS011;4046;48.774;8.732;2022-11-30T07:23:26;1.60;;;1.50;;
8001;SDS011;4046;48.774;8.732;2022-11-30T07:26:11;1.60;;;1.50;;
8001;SDS011;4046;48.774;8.732;2022-11-30T07:28:38;1.53;;;1.43;;
8001;SDS011;4046;48.774;8.732;2022-11-30T07:33:43;1.50;;;1.40;;
8001;SDS011;4046;48.774;8.732;2022-11-30T07:36:10;1.60;;;1.50;;
8001;SDS011;4046;48.774;8.732;2022-11-30T07:38:37;1.80;;;1.70;;
8001;SDS011;4046;48.774;8.732;2022-11-30T07:41:04;1.50;;;1.40;;
8001;SDS011;4046;48.774;8.732;2022-11-30T07:43:30;1.60;;;1.50;;
8001;SDS011;4046;48.774;8.732;2022-11-30T07:45:57;1.70;;;1.60;;
8001;SDS011;4046;48.774;8.732;2022-11-30T07:48:23;1.70;;;1.60;;
8001;SDS011;4046;48.774;8.732;2022-11-30T07:50:49;1.60;;;1.50;;
8001;SDS011;4046;48.774;8.732;2022-11-30T07:53:16;1.93;;;1.83;;
8001;SDS011;4046;48.774;8.732;2022-11-30T07:55:42;1.60;;;1.50;;
8001;SDS011;4046;48.774;8.732;2022-11-30T07:58:09;1.70;;;1.60;;
8001;SDS011;4046;48.774;8.732;2022-11-30T08:00:36;1.70;;;1.60;;
8001;SDS011;4046;48.774;8.732;2022-11-30T08:03:03;1.50;;;1.40;;
8001;SDS011;4046;48.774;8.732;2022-11-30T08:05:29;1.90;;;1.80;;
8001;SDS011;4046;48.774;8.732;2022-11-30T08:07:55;1.50;;;1.40;;
8001;SDS011;4046;48.774;8.732;2022-11-30T08:10:22;1.50;;;1.40;;
8001;SDS011;4046;48.774;8.732;2022-11-30T08:12:48;1.60;;;1.50;;
8001;SDS011;4046;48.774;8.732;2022-11-30T08:15:15;1.60;;;1.50;;
8001;SDS011;4046;48.774;8.732;2022-11-30T08:17:41;1.67;;;1.57;;
8001;SDS011;4046;48.774;8.732;2022-11-30T08:20:08;1.50;;;1.40;;
8001;SDS011;4046;48.774;8.732;2022-11-30T08:22:36;1.53;;;1.43;;
8001;SDS011;4046;48.774;8.732;2022-11-30T08:25:02;1.70;;;1.60;;
8001;SDS011;4046;48.774;8.732;2022-11-30T08:27:29;1.60;;;1.50;;
8001;SDS011;4046;48.774;8.732;2022-11-30T08:29:55;1.70;;;1.60;;
8001;SDS011;4046;48.774;8.732;2022-11-30T08:32:21;1.80;;;1.70;;
8001;SDS011;4046;48.774;8.732;2022-11-30T08:34:47;1.67;;;1.57;;
8001;SDS011;4046;48.774;8.732;2022-11-30T08:37:13;1.70;;;1.60;;
8001;SDS011;4046;48.774;8.732;2022-11-30T08:39:39;1.40;;;1.30;;
8001;SDS011;4046;48.774;8.732;2022-11-30T08:42:06;1.70;;;1.60;;
8001;SDS011;4046;48.774;8.732;2022-11-30T08:44:32;1.77;;;1.67;;
8001;SDS011;4046;48.774;8.732;2022-11-30T08:46:58;1.70;;;1.60;;
8001;SDS011;4046;48.774;8.732;2022-11-30T08:49:24;1.80;;;1.70;;
8001;SDS011;4046;48.774;8.732;2022-11-30T08:51:52;1.50;;;1.40;;
8001;SDS011;4046;48.774;8.732;2022-11-30T08:54:20;1.50;;;1.40;;
8001;SDS011;4046;48.774;8.732;2022-11-30T08:56:46;1.60;;;1.50;;
8001;SDS011;4046;48.774;8.732;2022-11-30T08:59:12;1.70;;;1.60;;
8001;SDS011;4046;48.774;8.732;2022-11-30T09:01:38;1.60;;;1.50;;
8001;SDS011;4046;48.774;8.732;2022-11-30T09:04:07;2.13;;;1.40;;
8001;SDS011;4046;48.774;8.732;2022-11-30T09:06:33;1.73;;;1.63;;
8001;SDS011;4046;48.774;8.732;2022-11-30T09:08:59;1.70;;;1.60;;
8001;SDS011;4046;48.774;8.732;2022-11-30T09:11:26;1.90;;;1.80;;
8001;SDS011;4046;48.774;8.732;2022-11-30T09:13:58;1.60;;;1.50;;
8001;SDS011;4046;48.774;8.732;2022-11-30T09:16:26;1.80;;;1.70;;
8001;SDS011;4046;48.774;8.732;2022-11-30T09:18:52;1.97;;;1.80;;
8001;SDS011;4046;48.774;8.732;2022-11-30T09:21:20;1.47;;;1.37;;
8001;SDS011;4046;48.774;8.732;2022-11-30T09:23:47;1.70;;;1.60;;
8001;SDS011;4046;48.774;8.732;2022-11-30T09:26:15;1.80;;;1.70;;
8001;SDS011;4046;48.774;8.732;2022-11-30T09:28:43;1.80;;;1.70;;
8001;SDS011;4046;48.774;8.732;2022-11-30T09:31:11;1.80;;;1.70;;
8001;SDS011;4046;48.774;8.732;2022-11-30T09:33:39;1.40;;;1.30;;
8001;SDS011;4046;48.774;8.732;2022-11-30T09:36:10;1.83;;;1.73;;
8001;SDS011;4046;48.774;8.732;2022-11-30T09:38:38;1.80;;;1.70;;
8001;SDS011;4046;48.774;8.732;2022-11-30T09:41:23;1.70;;;1.60;;
8001;SDS011;4046;48.774;8.732;2022-11-30T09:44:24;1.77;;;1.67;;
8001;SDS011;4046;48.774;8.732;2022-11-30T09:49:43;1.60;;;1.50;;
8001;SDS011;4046;48.774;8.732;2022-11-30T09:52:13;1.60;;;1.50;;
8001;SDS011;4046;48.774;8.732;2022-11-30T09:54:43;1.30;;;1.20;;
8001;SDS011;4046;48.774;8.732;2022-11-30T09:57:28;1.63;;;1.53;;
8001;SDS011;4046;48.774;8.732;2022-11-30T10:00:03;1.90;;;1.80;;
8001;SDS011;4046;48.774;8.732;2022-11-30T10:02:35;1.67;;;1.57;;
8001;SDS011;4046;48.774;8.732;2022-11-30T10:05:10;1.50;;;1.40;;
8001;SDS011;4046;48.774;8.732;2022-11-30T10:10:28;1.97;;;1.87;;
8001;SDS011;4046;48.774;8.732;2022-11-30T10:18:59;1.83;;;1.73;;
8001;SDS011;4046;48.774;8.732;2022-11-30T10:21:46;1.70;;;1.60;;
8001;SDS011;4046;48.774;8.732;2022-11-30T10:26:52;1.53;;;1.43;;
8001;SDS011;4046;48.774;8.732;2022-11-30T10:29:26;1.70;;;1.60;;
8001;SDS011;4046;48.774;8.732;2022-11-30T10:31:57;1.60;;;1.50;;
8001;SDS011;4046;48.774;8.732;2022-11-30T10:34:27;1.60;;;1.50;;
8001;SDS011;4046;48.774;8.732;2022-11-30T10:37:02;1.80;;;1.70;;
8001;SDS011;4046;48.774;8.732;2022-11-30T10:42:23;1.87;;;1.77;;
8001;SDS011;4046;48.774;8.732;2022-11-30T10:45:02;2.40;;;1.60;;
8001;SDS011;4046;48.774;8.732;2022-11-30T10:47:33;1.70;;;1.60;;
8001;SDS011;4046;48.774;8.732;2022-11-30T10:50:02;1.57;;;1.47;;
8001;SDS011;4046;48.774;8.732;2022-11-30T10:52:30;1.70;;;1.60;;
8001;SDS011;4046;48.774;8.732;2022-11-30T10:55:09;1.60;;;1.50;;
8001;SDS011;4046;48.774;8.732;2022-11-30T10:57:39;1.80;;;1.70;;
8001;SDS011;4046;48.774;8.732;2022-11-30T11:00:10;2.07;;;1.80;;
8001;SDS011;4046;48.774;8.732;2022-11-30T11:02:39;1.67;;;1.57;;
8001;SDS011;4046;48.774;8.732;2022-11-30T11:10:16;2.60;;;2.40;;
8001;SDS011;4046;48.774;8.732;2022-11-30T11:12:46;2.77;;;2.33;;
8001;SDS011;4046;48.774;8.732;2022-11-30T11:15:19;3.30;;;2.47;;
8001;SDS011;4046;48.774;8.732;2022-11-30T11:17:51;3.63;;;2.73;;
8001;SDS011;4046;48.774;8.732;2022-11-30T11:20:34;3.40;;;2.60;;
8001;SDS011;4046;48.774;8.732;2022-11-30T11:23:02;5.20;;;3.00;;
8001;SDS011;4046;48.774;8.732;2022-11-30T11:25:35;4.90;;;2.70;;
8001;SDS011;4046;48.774;8.732;2022-11-30T11:28:11;2.73;;;2.53;;
8001;SDS011;4046;48.774;8.732;2022-11-30T11:30:40;5.20;;;3.40;;
8001;SDS011;4046;48.774;8.732;2022-11-30T11:35:42;3.03;;;2.70;;
8001;SDS011;4046;48.774;8.732;2022-11-30T11:38:20;3.20;;;2.90;;
8001;SDS011;4046;48.774;8.732;2022-11-30T11:43:29;3.10;;;2.40;;
8001;SDS011;4046;48.774;8.732;2022-11-30T11:46:11;3.30;;;2.23;;
8001;SDS011;4046;48.774;8.732;2022-11-30T11:48:45;2.97;;;2.67;;
8001;SDS011;4046;48.774;8.732;2022-11-30T11:51:58;2.23;;;2.13;;
8001;SDS011;4046;48.774;8.732;2022-11-30T11:54:29;2.50;;;2.30;;
8001;SDS011;4046;48.774;8.732;2022-11-30T11:57:01;2.63;;;2.43;;
8001;SDS011;4046;48.774;8.732;2022-11-30T11:59:39;2.77;;;2.57;;
8001;SDS011;4046;48.774;8.732;2022-11-30T12:02:36;2.43;;;2.07;;
8001;SDS011;4046;48.774;8.732;2022-11-30T12:05:11;2.77;;;2.57;;
8001;SDS011;4046;48.774;8.732;2022-11-30T12:10:28;2.60;;;2.40;;
8001;SDS011;4046;48.774;8.732;2022-11-30T12:12:58;5.27;;;2.60;;
8001;SDS011;4046;48.774;8.732;2022-11-30T12:15:27;5.20;;;3.13;;
8001;SDS011;4046;48.774;8.732;2022-11-30T12:18:04;5.57;;;2.63;;
8001;SDS011;4046;48.774;8.732;2022-11-30T12:24:08;2.50;;;2.30;;
8001;SDS011;4046;48.774;8.732;2022-11-30T12:26:46;3.17;;;2.87;;
8001;SDS011;4046;48.774;8.732;2022-11-30T12:29:41;2.70;;;2.47;;
8001;SDS011;4046;48.774;8.732;2022-11-30T12:32:26;2.70;;;2.50;;
8001;SDS011;4046;48.774;8.732;2022-11-30T12:35:02;3.07;;;2.77;;
8001;SDS011;4046;48.774;8.732;2022-11-30T12:49:02;3.03;;;2.60;;
8001;SDS011;4046;48.774;8.732;2022-11-30T12:51:39;2.20;;;2.10;;
8001;SDS011;4046;48.774;8.732;2022-11-30T12:54:20;3.50;;;2.50;;
8001;SDS011;4046;48.774;8.732;2022-11-30T12:57:08;2.93;;;2.43;;
8001;SDS011;4046;48.774;8.732;2022-11-30T12:59:41;2.50;;;2.30;;
8001;SDS011;4046;48.774;8.732;2022-11-30T13:05:04;2.70;;;2.50;;
8001;SDS011;4046;48.774;8.732;2022-11-30T13:07:36;2.80;;;2.60;;
8001;SDS011;4046;48.774;8.732;2022-11-30T13:10:34;2.77;;;2.57;;
8001;SDS011;4046;48.774;8.732;2022-11-30T13:13:15;2.80;;;2.60;;
8001;SDS011;4046;48.774;8.732;2022-11-30T13:15:50;2.70;;;2.50;;
8001;SDS011;4046;48.774;8.732;2022-11-30T13:18:18;2.53;;;2.30;;
8001;SDS011;4046;48.774;8.732;2022-11-30T13:20:49;2.40;;;2.20;;
8001;SDS011;4046;48.774;8.732;2022-11-30T13:24:02;2.63;;;2.43;;
8001;SDS011;4046;48.774;8.732;2022-11-30T13:26:41;3.20;;;2.90;;
8001;SDS011;4046;48.774;8.732;2022-11-30T13:32:18;3.50;;;2.87;;
8001;SDS011;4046;48.774;8.732;2022-11-30T13:34:45;3.03;;;2.83;;
8001;SDS011;4046;48.774;8.732;2022-11-30T13:37:12;3.40;;;2.80;;
8001;SDS011;4046;48.774;8.732;2022-11-30T13:39:45;3.23;;;2.93;;
8001;SDS011;4046;48.774;8.732;2022-11-30T13:42:18;4.70;;;2.80;;
8001;SDS011;4046;48.774;8.732;2022-11-30T13:50:14;5.87;;;3.37;;
8001;SDS011;4046;48.774;8.732;2022-11-30T13:58:14;8.03;;;3.20;;
8001;SDS011;4046;48.774;8.732;2022-11-30T14:06:48;8.13;;;3.27;;
8001;SDS011;4046;48.774;8.732;2022-11-30T14:10:02;5.77;;;3.20;;
8001;SDS011;4046;48.774;8.732;2022-11-30T14:14:58;7.77;;;3.10;;
8001;SDS011;4046;48.774;8.732;2022-11-30T14:17:25;9.30;;;3.57;;
8001;SDS011;4046;48.774;8.732;2022-11-30T14:19:55;4.37;;;3.10;;
8001;SDS011;4046;48.774;8.732;2022-11-30T14:22:26;4.90;;;3.23;;
8001;SDS011;4046;48.774;8.732;2022-11-30T14:24:54;5.07;;;3.50;;
8001;SDS011;4046;48.774;8.732;2022-11-30T14:27:24;4.60;;;3.50;;
8001;SDS011;4046;48.774;8.732;2022-11-30T14:29:55;5.83;;;3.27;;
8001;SDS011;4046;48.774;8.732;2022-11-30T14:35:17;3.53;;;3.23;;
8001;SDS011;4046;48.774;8.732;2022-11-30T14:37:44;3.77;;;3.37;;
8001;SDS011;4046;48.774;8.732;2022-11-30T14:40:17;3.60;;;3.17;;
8001;SDS011;4046;48.774;8.732;2022-11-30T14:42:46;4.60;;;3.40;;
8001;SDS011;4046;48.774;8.732;2022-11-30T14:45:18;3.30;;;3.00;;
8001;SDS011;4046;48.774;8.732;2022-11-30T14:47:50;4.50;;;3.27;;
8001;SDS011;4046;48.774;8.732;2022-11-30T14:50:23;5.03;;;3.70;;
8001;SDS011;4046;48.774;8.732;2022-11-30T14:55:30;3.63;;;3.33;;
8001;SDS011;4046;48.774;8.732;2022-11-30T15:00:48;3.90;;;3.20;;
8001;SDS011;4046;48.774;8.732;2022-11-30T15:05:44;3.17;;;2.97;;
8001;SDS011;4046;48.774;8.732;2022-11-30T15:08:11;3.77;;;3.47;;
8001;SDS011;4046;48.774;8.732;2022-11-30T15:10:41;3.80;;;3.43;;
8001;SDS011;4046;48.774;8.732;2022-11-30T15:13:10;4.10;;;3.27;;
8001;SDS011;4046;48.774;8.732;2022-11-30T15:15:49;6.30;;;3.23;;
8001;SDS011;4046;48.774;8.732;2022-11-30T15:18:17;3.53;;;3.23;;
8001;SDS011;4046;48.774;8.732;2022-11-30T15:23:18;3.83;;;3.53;;
8001;SDS011;4046;48.774;8.732;2022-11-30T15:28:23;3.73;;;3.43;;
8001;SDS011;4046;48.774;8.732;2022-11-30T15:31:03;4.00;;;3.50;;
8001;SDS011;4046;48.774;8.732;2022-11-30T15:33:50;3.87;;;3.57;;
8001;SDS011;4046;48.774;8.732;2022-11-30T15:36:16;5.03;;;3.60;;
8001;SDS011;4046;48.774;8.732;2022-11-30T15:38:47;3.40;;;3.20;;
8001;SDS011;4046;48.774;8.732;2022-11-30T15:41:18;3.57;;;3.37;;
8001;SDS011;4046;48.774;8.732;2022-11-30T15:43:48;3.63;;;3.33;;
8001;SDS011;4046;48.774;8.732;2022-11-30T15:46:35;3.20;;;2.90;;
8001;SDS011;4046;48.774;8.732;2022-11-30T15:51:38;4.77;;;3.70;;
8001;SDS011;4046;48.774;8.732;2022-11-30T15:54:07;3.50;;;3.30;;
8001;SDS011;4046;48.774;8.732;2022-11-30T15:56:34;3.80;;;3.50;;
8001;SDS011;4046;48.774;8.732;2022-11-30T16:07:31;3.47;;;3.17;;
8001;SDS011;4046;48.774;8.732;2022-11-30T16:12:31;3.40;;;3.10;;
8001;SDS011;4046;48.774;8.732;2022-11-30T16:14:57;3.73;;;3.43;;
8001;SDS011;4046;48.774;8.732;2022-11-30T16:17:24;3.73;;;3.43;;
8001;SDS011;4046;48.774;8.732;2022-11-30T16:19:52;3.90;;;3.60;;
8001;SDS011;4046;48.774;8.732;2022-11-30T16:22:18;3.33;;;3.03;;
8001;SDS011;4046;48.774;8.732;2022-11-30T16:24:44;4.70;;;3.60;;
8001;SDS011;4046;48.774;8.732;2022-11-30T16:27:15;3.67;;;3.37;;
8001;SDS011;4046;48.774;8.732;2022-11-30T16:29:43;4.03;;;3.63;;
8001;SDS011;4046;48.774;8.732;2022-11-30T16:32:10;6.20;;;3.50;;
8001;SDS011;4046;48.774;8.732;2022-11-30T16:34:38;3.90;;;3.50;;
8001;SDS011;4046;48.774;8.732;2022-11-30T16:37:05;3.73;;;3.43;;
8001;SDS011;4046;48.774;8.732;2022-11-30T16:39:34;5.30;;;3.63;;
8001;SDS011;4046;48.774;8.732;2022-11-30T16:42:01;3.40;;;3.00;;
8001;SDS011;4046;48.774;8.732;2022-11-30T16:44:27;3.33;;;3.03;;
8001;SDS011;4046;48.774;8.732;2022-11-30T16:46:53;3.53;;;3.20;;
8001;SDS011;4046;48.774;8.732;2022-11-30T16:49:20;3.50;;;3.20;;
8001;SDS011;4046;48.774;8.732;2022-11-30T16:51:46;4.80;;;3.67;;
8001;SDS011;4046;48.774;8.732;2022-11-30T16:54:13;4.57;;;3.80;;
8001;SDS011;4046;48.774;8.732;2022-11-30T16:56:40;3.97;;;3.40;;
8001;SDS011;4046;48.774;8.732;2022-11-30T16:59:08;3.90;;;2.90;;
8001;SDS011;4046;48.774;8.732;2022-11-30T17:01:38;3.33;;;3.13;;
8001;SDS011;4046;48.774;8.732;2022-11-30T17:04:18;4.30;;;3.40;;
8001;SDS011;4046;48.774;8.732;2022-11-30T17:06:47;3.30;;;3.10;;
8001;SDS011;4046;48.774;8.732;2022-11-30T17:09:14;3.10;;;2.80;;
8001;SDS011;4046;48.774;8.732;2022-11-30T17:11:41;4.40;;;3.30;;
8001;SDS011;4046;48.774;8.732;2022-11-30T17:14:13;4.30;;;3.43;;
8001;SDS011;4046;48.774;8.732;2022-11-30T17:16:39;3.47;;;3.17;;
8001;SDS011;4046;48.774;8.732;2022-11-30T17:19:06;3.90;;;2.97;;
8001;SDS011;4046;48.774;8.732;2022-11-30T17:21:33;3.77;;;3.47;;